X  Fermer Données météorologiques d'aviation de Metar     EDDH Hamburg Helmut Schmidt Airport
Température
4°C Température
2°C Point de rosée
87% Humidité



Vent
9 MPH
14 KM/H
4 M/S
8 KTS



170°
S
Conditions actuelles

Clair Clair
Pression 1003.05 (hPa) - 29.62 (inHg)
Visibilité 6 (mile) - 9.7 (km)
Aéroport
Code de l'aéroport EDDH

Emplacement: Hamburg Helmut Schmidt Airport
Distance: 11 (mi)

Metar:
EDDH 250050Z AUTO 17008KT CAVOK 04/02 Q1003 NOSIG

Temps: 25-02-2024 01:50 CET